createdAt,value
2023-02-27T00:00:00.338Z,74.95
2023-02-27T00:02:27.261Z,75.29
2023-02-27T00:04:54.719Z,75.19
2023-02-27T00:07:26.073Z,75.35
2023-02-27T00:09:53.337Z,75.41
2023-02-27T00:12:20.226Z,75.74
2023-02-27T00:14:46.922Z,75.53
2023-02-27T00:17:13.620Z,75.42
2023-02-27T00:19:40.221Z,75.50
2023-02-27T00:22:06.868Z,75.39
2023-02-27T00:24:33.500Z,75.62
2023-02-27T00:27:00.168Z,75.26
2023-02-27T00:29:28.033Z,75.37
2023-02-27T00:31:54.729Z,75.55
2023-02-27T00:34:21.491Z,75.29
2023-02-27T00:36:49.562Z,75.30
2023-02-27T00:39:16.295Z,74.87
2023-02-27T00:41:42.891Z,75.21
2023-02-27T00:44:09.539Z,74.96
2023-02-27T00:46:36.278Z,74.87
2023-02-27T00:49:02.973Z,75.18
2023-02-27T00:51:29.691Z,74.95
2023-02-27T00:53:56.638Z,74.90
2023-02-27T00:56:23.425Z,74.90
2023-02-27T00:58:50.142Z,75.08
2023-02-27T01:01:16.949Z,74.74
2023-02-27T01:03:43.648Z,74.94
2023-02-27T01:06:10.330Z,74.61
2023-02-27T01:08:36.964Z,74.71
2023-02-27T01:11:03.776Z,74.76
2023-02-27T01:13:30.545Z,74.93
2023-02-27T01:15:57.362Z,74.41
2023-02-27T01:18:24.079Z,74.73
2023-02-27T01:20:55.099Z,74.58
2023-02-27T01:23:23.073Z,74.68
2023-02-27T01:25:50.271Z,74.88
2023-02-27T01:28:17.172Z,74.47
2023-02-27T01:30:44.192Z,74.83
2023-02-27T01:33:10.909Z,75.17
2023-02-27T01:35:37.837Z,74.94
2023-02-27T01:38:04.578Z,75.22
2023-02-27T01:40:37.399Z,75.16
2023-02-27T01:43:05.365Z,75.21
2023-02-27T01:45:40.087Z,75.47
2023-02-27T01:48:15.126Z,75.59
2023-02-27T01:51:11.462Z,75.52
2023-02-27T01:53:40.215Z,75.29
2023-02-27T01:56:16.637Z,75.76
2023-02-27T01:58:44.411Z,75.25
2023-02-27T02:01:11.241Z,75.39
2023-02-27T02:03:45.358Z,75.40
2023-02-27T02:06:12.615Z,75.70
2023-02-27T02:08:44.166Z,75.58
2023-02-27T02:11:12.544Z,75.80
2023-02-27T02:13:41.457Z,75.74
2023-02-27T02:16:46.233Z,75.77
2023-02-27T02:19:34.835Z,75.69
2023-02-27T02:22:04.109Z,75.52
2023-02-27T02:25:00.867Z,75.69
2023-02-27T02:27:39.395Z,75.84
2023-02-27T02:30:35.452Z,75.92
2023-02-27T02:33:31.112Z,75.65
2023-02-27T02:36:19.680Z,75.73
2023-02-27T02:38:52.508Z,75.81
2023-02-27T02:41:49.979Z,75.70
2023-02-27T02:44:19.697Z,75.92
2023-02-27T02:47:00.210Z,75.77
2023-02-27T02:49:53.376Z,75.55
2023-02-27T02:52:19.952Z,75.51
2023-02-27T02:55:05.065Z,75.68
2023-02-27T02:57:41.064Z,75.50
2023-02-27T03:02:48.209Z,75.76
2023-02-27T03:05:22.649Z,75.41
2023-02-27T03:07:57.445Z,75.28
2023-02-27T03:10:30.566Z,75.51
2023-02-27T03:13:08.921Z,75.53
2023-02-27T03:15:43.901Z,75.97
2023-02-27T03:18:20.576Z,75.82
2023-02-27T03:20:58.191Z,76.14
2023-02-27T03:23:38.327Z,76.17
2023-02-27T03:26:06.927Z,76.18
2023-02-27T03:28:38.627Z,75.99
2023-02-27T03:31:23.396Z,76.38
2023-02-27T03:33:55.888Z,76.23
2023-02-27T03:36:58.245Z,76.05
2023-02-27T03:39:44.335Z,76.25
2023-02-27T03:42:25.461Z,75.78
2023-02-27T03:45:07.675Z,75.92
2023-02-27T03:47:35.411Z,76.14
2023-02-27T03:50:02.185Z,75.81
2023-02-27T03:52:29.927Z,75.93
2023-02-27T03:55:08.618Z,75.95
2023-02-27T03:57:36.533Z,75.88
2023-02-27T04:00:07.201Z,75.62
2023-02-27T04:02:33.988Z,75.77
2023-02-27T04:05:00.693Z,75.63
2023-02-27T04:07:37.544Z,75.64
2023-02-27T04:10:41.427Z,75.50
2023-02-27T04:13:10.827Z,75.31
2023-02-27T04:15:46.587Z,75.12
2023-02-27T04:18:30.839Z,75.00
2023-02-27T04:21:06.091Z,75.08
2023-02-27T04:23:55.165Z,74.70
2023-02-27T04:26:27.872Z,74.75
2023-02-27T04:29:06.603Z,74.63
2023-02-27T04:31:57.568Z,74.83
2023-02-27T04:34:32.730Z,74.37
2023-02-27T04:37:26.169Z,74.21
2023-02-27T04:39:53.477Z,74.18
2023-02-27T04:42:25.731Z,73.97
2023-02-27T04:44:56.105Z,73.83
2023-02-27T04:47:25.194Z,73.68
2023-02-27T04:49:58.534Z,73.72
2023-02-27T04:52:31.889Z,73.48
2023-02-27T04:55:14.795Z,73.68
2023-02-27T04:57:50.526Z,73.41
2023-02-27T05:00:21.384Z,73.49
2023-02-27T05:02:54.462Z,73.48
2023-02-27T05:05:26.797Z,73.43
2023-02-27T05:07:59.424Z,73.26
2023-02-27T05:10:35.021Z,73.42
2023-02-27T05:13:16.284Z,73.24
2023-02-27T05:15:59.927Z,73.10
2023-02-27T05:18:27.306Z,73.04
2023-02-27T05:21:06.581Z,73.08
2023-02-27T05:23:39.665Z,73.16
2023-02-27T05:26:27.232Z,73.17
2023-02-27T05:29:07.526Z,73.11
2023-02-27T05:31:57.111Z,73.21
2023-02-27T05:34:29.351Z,73.01
2023-02-27T05:37:00.037Z,73.01
2023-02-27T05:39:30.247Z,72.96
2023-02-27T05:42:05.089Z,73.42
2023-02-27T05:44:36.005Z,72.74
2023-02-27T05:47:08.042Z,72.81
2023-02-27T05:49:43.409Z,73.01
2023-02-27T05:52:14.228Z,72.57
2023-02-27T05:54:51.794Z,72.64
2023-02-27T05:57:44.147Z,72.42
2023-02-27T06:00:14.337Z,72.47
2023-02-27T06:02:43.779Z,72.53
2023-02-27T06:05:11.382Z,72.81
2023-02-27T06:07:39.329Z,72.35
2023-02-27T06:10:06.882Z,72.36
2023-02-27T06:12:33.574Z,72.51
2023-02-27T06:15:00.273Z,72.55
2023-02-27T06:17:26.904Z,72.69
2023-02-27T06:19:53.588Z,72.29
2023-02-27T06:22:20.251Z,72.50
2023-02-27T06:24:46.878Z,72.58
2023-02-27T06:27:13.565Z,72.41
2023-02-27T06:29:40.455Z,72.60
2023-02-27T06:32:07.180Z,72.43
2023-02-27T06:34:33.856Z,72.47
2023-02-27T06:37:02.621Z,72.44
2023-02-27T06:39:30.583Z,72.79
2023-02-27T06:41:57.217Z,72.83
2023-02-27T06:44:24.046Z,72.84
2023-02-27T06:46:50.670Z,72.73
2023-02-27T06:49:17.330Z,72.72
2023-02-27T06:51:45.088Z,72.63
2023-02-27T06:54:11.972Z,72.34
2023-02-27T06:56:38.682Z,72.63
2023-02-27T06:59:05.536Z,72.36
2023-02-27T07:01:32.500Z,72.71
2023-02-27T07:04:01.114Z,72.56
2023-02-27T07:07:32.057Z,72.49
2023-02-27T07:09:14.763Z,72.42
2023-02-27T07:11:41.397Z,72.69
2023-02-27T07:14:08.093Z,72.53
2023-02-27T07:16:34.720Z,72.63
2023-02-27T07:19:01.329Z,72.83
2023-02-27T07:21:27.977Z,72.51
2023-02-27T07:23:54.584Z,72.86
2023-02-27T07:26:21.289Z,72.79
2023-02-27T07:28:47.924Z,73.15
2023-02-27T07:31:14.832Z,72.89
2023-02-27T07:33:41.931Z,72.95
2023-02-27T07:36:08.623Z,72.95
2023-02-27T07:38:35.350Z,72.82
2023-02-27T07:41:02.078Z,72.91
2023-02-27T07:43:28.705Z,73.14
2023-02-27T07:45:55.347Z,72.95
2023-02-27T07:48:21.989Z,72.91
2023-02-27T07:50:48.610Z,72.83
2023-02-27T07:53:15.237Z,72.75
2023-02-27T07:55:41.929Z,72.87
2023-02-27T07:58:08.582Z,72.91
2023-02-27T08:00:35.364Z,72.56
2023-02-27T08:03:02.116Z,72.62
2023-02-27T08:05:28.873Z,72.70
2023-02-27T08:07:55.767Z,72.47
2023-02-27T08:10:22.455Z,72.51
2023-02-27T08:12:49.063Z,72.25
2023-02-27T08:15:15.888Z,72.40
2023-02-27T08:17:42.598Z,71.97
2023-02-27T08:20:11.869Z,72.37
2023-02-27T08:22:38.535Z,72.19
2023-02-27T08:25:07.856Z,72.03
2023-02-27T08:27:35.144Z,72.19
2023-02-27T08:30:01.853Z,71.89
2023-02-27T08:32:28.727Z,72.23
2023-02-27T08:34:55.510Z,72.48
2023-02-27T08:37:23.086Z,72.08
2023-02-27T08:39:49.696Z,72.09
2023-02-27T08:42:16.414Z,72.26
2023-02-27T08:44:43.079Z,71.93
2023-02-27T08:47:09.886Z,71.87
2023-02-27T08:49:36.773Z,71.97
2023-02-27T08:52:05.599Z,71.75
2023-02-27T08:54:32.278Z,71.66
2023-02-27T08:56:59.805Z,71.78
2023-02-27T08:59:26.533Z,71.89
2023-02-27T09:01:53.263Z,71.87
2023-02-27T09:04:21.070Z,71.98
2023-02-27T09:06:48.204Z,71.49
2023-02-27T09:09:14.920Z,71.49
2023-02-27T09:11:42.067Z,71.49
2023-02-27T09:14:08.842Z,71.41
2023-02-27T09:16:35.674Z,71.51
2023-02-27T09:19:02.391Z,71.34
2023-02-27T09:21:29.866Z,70.92
2023-02-27T09:24:02.575Z,71.19
2023-02-27T09:26:45.379Z,70.75
2023-02-27T09:29:13.382Z,70.98
2023-02-27T09:31:40.145Z,71.03
2023-02-27T09:34:06.802Z,70.70
2023-02-27T09:36:33.476Z,70.75
2023-02-27T09:39:00.145Z,70.58
2023-02-27T09:41:54.970Z,70.26
2023-02-27T09:44:44.804Z,70.42
2023-02-27T09:47:28.431Z,70.52
2023-02-27T09:49:55.110Z,70.49
2023-02-27T09:52:21.920Z,70.42
2023-02-27T09:54:49.416Z,70.69
2023-02-27T09:57:24.311Z,70.18
2023-02-27T09:59:56.811Z,70.47
2023-02-27T10:02:54.261Z,70.25
2023-02-27T10:05:56.153Z,70.17
2023-02-27T10:08:45.762Z,70.18
2023-02-27T10:11:17.273Z,70.47
2023-02-27T10:13:46.938Z,70.28
2023-02-27T10:16:17.406Z,70.45
2023-02-27T10:18:55.838Z,70.32
2023-02-27T10:21:35.967Z,70.31
2023-02-27T10:24:14.882Z,70.14
2023-02-27T10:26:44.391Z,70.20
2023-02-27T10:29:19.084Z,70.11
2023-02-27T10:31:50.385Z,69.63
2023-02-27T10:34:17.300Z,69.91
2023-02-27T10:36:47.064Z,69.73
2023-02-27T10:39:18.190Z,69.75
2023-02-27T10:41:46.786Z,69.70
2023-02-27T10:44:20.572Z,69.73
2023-02-27T10:46:51.315Z,70.01
2023-02-27T10:49:22.533Z,69.80
2023-02-27T10:52:16.705Z,69.86
2023-02-27T10:54:44.058Z,69.90
2023-02-27T10:57:35.898Z,69.32
2023-02-27T11:00:06.497Z,69.23
2023-02-27T11:02:39.736Z,69.44
2023-02-27T11:05:29.069Z,69.31
2023-02-27T11:08:20.846Z,68.82
2023-02-27T11:11:27.484Z,68.75
2023-02-27T11:14:14.842Z,68.96
2023-02-27T11:17:20.435Z,69.20
2023-02-27T11:19:47.239Z,69.38
2023-02-27T11:22:20.308Z,70.11
2023-02-27T11:24:48.259Z,70.35
2023-02-27T11:27:28.857Z,70.19
2023-02-27T11:30:03.387Z,70.09
2023-02-27T11:32:48.948Z,70.00
2023-02-27T11:35:32.840Z,70.25
2023-02-27T11:38:03.312Z,70.10
2023-02-27T11:40:37.330Z,70.25
2023-02-27T11:43:15.171Z,70.21
2023-02-27T11:46:29.143Z,70.16
2023-02-27T11:48:31.891Z,70.37
2023-02-27T11:51:11.603Z,70.50
2023-02-27T11:53:57.298Z,70.72
2023-02-27T11:56:53.821Z,70.35
2023-02-27T11:59:26.436Z,70.51
2023-02-27T12:02:01.721Z,70.31
2023-02-27T12:04:41.565Z,70.16
2023-02-27T12:07:19.115Z,70.27
2023-02-27T12:10:00.790Z,70.34
2023-02-27T12:12:45.722Z,70.48
2023-02-27T12:15:24.096Z,70.32
2023-02-27T12:17:59.667Z,70.20
2023-02-27T12:20:50.694Z,69.81
2023-02-27T12:23:29.272Z,69.84
2023-02-27T12:26:17.901Z,69.51
2023-02-27T12:29:15.061Z,69.42
2023-02-27T12:31:47.847Z,68.67
2023-02-27T12:34:26.190Z,68.62
2023-02-27T12:36:54.197Z,68.72
2023-02-27T12:39:25.542Z,68.70
2023-02-27T12:42:01.460Z,68.55
2023-02-27T12:45:09.793Z,68.26
2023-02-27T12:47:42.581Z,68.40
2023-02-27T12:50:19.800Z,67.64
2023-02-27T12:53:14.181Z,67.67
2023-02-27T12:55:47.896Z,67.92
2023-02-27T12:58:25.733Z,68.00
2023-02-27T13:01:15.621Z,68.05
2023-02-27T13:04:15.077Z,68.38
2023-02-27T13:06:57.802Z,68.67
2023-02-27T13:09:34.341Z,68.91
2023-02-27T13:12:00.979Z,68.93
2023-02-27T13:14:36.851Z,68.56
2023-02-27T13:17:10.732Z,68.70
2023-02-27T13:20:15.307Z,68.65
2023-02-27T13:22:54.695Z,68.37
2023-02-27T13:25:22.800Z,68.30
2023-02-27T13:27:57.562Z,67.94
2023-02-27T13:30:26.373Z,67.58
2023-02-27T13:33:16.513Z,67.69
2023-02-27T13:36:24.278Z,67.52
2023-02-27T13:38:53.448Z,67.56
2023-02-27T13:41:29.082Z,67.28
2023-02-27T13:44:22.866Z,67.45
2023-02-27T13:46:49.712Z,67.38
2023-02-27T13:49:28.822Z,67.38
2023-02-27T13:51:59.906Z,67.23
2023-02-27T13:54:36.391Z,67.12
2023-02-27T13:57:09.095Z,67.32
2023-02-27T13:59:39.692Z,67.48
2023-02-27T14:02:31.149Z,67.56
2023-02-27T14:05:03.094Z,67.66
2023-02-27T14:07:34.483Z,67.85
2023-02-27T14:10:11.667Z,68.18
2023-02-27T14:12:45.754Z,68.52
2023-02-27T14:15:22.352Z,68.83
2023-02-27T14:17:52.532Z,69.14
2023-02-27T14:20:32.048Z,69.35
2023-02-27T14:23:16.884Z,69.32
2023-02-27T14:25:49.739Z,68.90
2023-02-27T14:28:43.969Z,69.09
2023-02-27T14:31:32.728Z,69.06
2023-02-27T14:34:05.854Z,69.04
2023-02-27T14:36:39.650Z,68.98
2023-02-27T14:39:06.443Z,68.69
2023-02-27T14:41:49.659Z,68.49
2023-02-27T14:44:28.058Z,68.43
2023-02-27T14:46:57.616Z,68.38
2023-02-27T14:49:35.912Z,68.38
2023-02-27T14:52:29.730Z,68.35
2023-02-27T14:55:27.795Z,68.36
2023-02-27T14:58:08.219Z,68.40
2023-02-27T15:00:39.287Z,68.57
2023-02-27T15:03:27.948Z,68.42
2023-02-27T15:05:59.532Z,68.49
2023-02-27T15:08:40.538Z,68.38
2023-02-27T15:11:08.796Z,67.40
2023-02-27T15:13:39.171Z,67.15
2023-02-27T15:21:01.676Z,67.04
2023-02-27T15:24:02.609Z,66.66
2023-02-27T15:27:02.461Z,66.56
2023-02-27T15:29:58.101Z,66.64
2023-02-27T15:32:45.124Z,66.60
2023-02-27T15:35:37.518Z,66.79
2023-02-27T15:38:28.374Z,67.10
2023-02-27T15:41:21.022Z,67.92
2023-02-27T15:44:07.883Z,68.50
2023-02-27T15:46:56.155Z,68.40
2023-02-27T15:49:43.275Z,69.16
2023-02-27T15:52:40.552Z,68.95
2023-02-27T15:55:37.505Z,68.91
2023-02-27T15:58:30.332Z,68.96
2023-02-27T16:01:22.756Z,69.29
2023-02-27T16:04:24.309Z,68.92
2023-02-27T16:07:22.385Z,68.72
2023-02-27T16:10:20.463Z,68.66
2023-02-27T16:13:25.812Z,68.66
2023-02-27T16:16:35.970Z,68.34
2023-02-27T16:19:32.526Z,67.98
2023-02-27T16:22:21.192Z,67.96
2023-02-27T16:25:18.641Z,67.96
2023-02-27T16:28:05.594Z,67.97
2023-02-27T16:30:54.439Z,68.18
2023-02-27T16:33:42.794Z,68.31
2023-02-27T16:36:31.646Z,68.57
2023-02-27T16:39:18.687Z,68.65
2023-02-27T16:42:05.670Z,68.69
2023-02-27T16:44:52.792Z,68.75
2023-02-27T16:47:39.814Z,68.91
2023-02-27T16:50:29.023Z,69.02
2023-02-27T16:53:17.975Z,69.03
2023-02-27T16:56:05.239Z,69.00
2023-02-27T16:58:53.093Z,69.25
2023-02-27T17:01:40.093Z,69.31
2023-02-27T17:04:28.140Z,69.61
2023-02-27T17:07:17.761Z,69.46
2023-02-27T17:10:05.065Z,69.08
2023-02-27T17:12:52.608Z,69.38
2023-02-27T17:15:39.628Z,69.13
2023-02-27T17:18:26.927Z,68.22
2023-02-27T17:21:13.922Z,68.25
2023-02-27T17:24:01.198Z,68.18
2023-02-27T17:26:48.200Z,67.78
2023-02-27T17:29:38.261Z,67.93
2023-02-27T17:32:25.379Z,67.90
2023-02-27T17:35:12.411Z,67.93
2023-02-27T17:37:59.598Z,67.95
2023-02-27T17:40:46.530Z,68.10
2023-02-27T17:43:33.552Z,67.98
2023-02-27T17:46:28.671Z,67.96
2023-02-27T17:49:15.762Z,68.06
2023-02-27T17:52:02.952Z,67.91
2023-02-27T17:54:50.179Z,67.61
2023-02-27T17:57:38.828Z,67.81
2023-02-27T18:00:25.855Z,67.76
2023-02-27T18:03:12.821Z,67.63
2023-02-27T18:05:59.802Z,67.83
2023-02-27T18:08:47.367Z,67.64
2023-02-27T18:11:34.335Z,67.61
2023-02-27T18:14:21.308Z,67.48
2023-02-27T18:17:12.075Z,67.33
2023-02-27T18:19:59.091Z,67.23
2023-02-27T18:22:45.973Z,67.19
2023-02-27T18:25:33.014Z,67.22
2023-02-27T18:28:19.893Z,66.99
2023-02-27T18:31:06.914Z,67.12
2023-02-27T18:33:54.534Z,67.06
2023-02-27T18:36:41.749Z,67.01
2023-02-27T18:39:28.679Z,67.06
2023-02-27T18:42:15.571Z,67.09
2023-02-27T18:45:02.517Z,67.12
2023-02-27T18:47:49.524Z,67.07
2023-02-27T18:50:36.585Z,67.17
2023-02-27T18:53:23.489Z,67.46
2023-02-27T18:56:11.140Z,67.53
2023-02-27T18:59:02.121Z,67.53
2023-02-27T19:01:49.134Z,67.53
2023-02-27T19:04:36.246Z,67.79
2023-02-27T19:07:23.811Z,67.74
2023-02-27T19:10:11.375Z,67.90
2023-02-27T19:12:58.262Z,67.95
2023-02-27T19:15:45.210Z,68.13
2023-02-27T19:18:32.209Z,68.19
2023-02-27T19:21:19.143Z,68.26
2023-02-27T19:23:45.940Z,68.35
2023-02-27T19:26:12.613Z,68.48
2023-02-27T19:28:39.325Z,68.48
2023-02-27T19:31:08.071Z,68.47
2023-02-27T19:33:34.894Z,68.57
2023-02-27T19:36:09.208Z,68.87
2023-02-27T19:38:36.822Z,68.80
2023-02-27T19:41:06.724Z,69.08
2023-02-27T19:43:35.385Z,69.29
2023-02-27T19:46:13.664Z,69.20
2023-02-27T19:48:41.941Z,69.18
2023-02-27T19:51:11.042Z,69.20
2023-02-27T19:53:39.760Z,69.62
2023-02-27T19:56:12.588Z,69.35
2023-02-27T19:58:39.790Z,69.79
2023-02-27T20:01:07.078Z,69.76
2023-02-27T20:03:35.335Z,69.84
2023-02-27T20:06:06.369Z,70.10
2023-02-27T20:08:34.109Z,70.31
2023-02-27T20:11:03.882Z,70.56
2023-02-27T20:13:31.138Z,70.59
2023-02-27T20:16:03.214Z,70.74
2023-02-27T20:18:32.312Z,70.76
2023-02-27T20:21:06.097Z,70.85
2023-02-27T20:23:34.864Z,71.25
2023-02-27T20:26:01.716Z,71.45
2023-02-27T20:28:28.532Z,71.51
2023-02-27T20:30:55.311Z,71.67
2023-02-27T20:33:21.991Z,71.70
2023-02-27T20:35:48.694Z,71.65
2023-02-27T20:38:19.910Z,71.99
2023-02-27T20:40:46.608Z,71.84
2023-02-27T20:43:13.243Z,72.31
2023-02-27T20:45:40.354Z,72.34
2023-02-27T20:48:07.218Z,72.40
2023-02-27T20:50:34.938Z,72.32
2023-02-27T20:53:04.716Z,72.41
2023-02-27T20:55:31.394Z,72.49
2023-02-27T20:57:58.117Z,72.73
2023-02-27T21:00:26.800Z,72.69
2023-02-27T21:03:00.871Z,72.83
2023-02-27T21:05:27.713Z,72.74
2023-02-27T21:07:54.384Z,72.89
2023-02-27T21:10:21.102Z,73.04
2023-02-27T21:12:48.165Z,73.20
2023-02-27T21:15:15.023Z,73.20
2023-02-27T21:17:41.756Z,73.35
2023-02-27T21:20:09.130Z,73.62
2023-02-27T21:22:36.030Z,73.62
2023-02-27T21:25:02.666Z,73.49
2023-02-27T21:27:29.373Z,73.82
2023-02-27T21:29:56.485Z,73.98
2023-02-27T21:32:23.157Z,73.72
2023-02-27T21:34:50.504Z,73.94
2023-02-27T21:37:17.148Z,73.89
2023-02-27T21:39:47.124Z,74.27
2023-02-27T21:42:13.765Z,74.01
2023-02-27T21:44:40.429Z,74.06
2023-02-27T21:47:10.155Z,74.12
2023-02-27T21:49:37.339Z,74.27
2023-02-27T21:52:04.191Z,74.20
2023-02-27T21:54:30.973Z,74.03
2023-02-27T21:57:01.809Z,74.26
2023-02-27T21:59:28.805Z,74.35
2023-02-27T22:01:57.345Z,74.50
2023-02-27T22:04:24.993Z,74.49
2023-02-27T22:06:53.546Z,74.56
2023-02-27T22:09:20.844Z,74.54
2023-02-27T22:11:48.537Z,74.66
2023-02-27T22:14:15.612Z,74.53
2023-02-27T22:16:42.375Z,74.68
2023-02-27T22:19:19.790Z,74.55
2023-02-27T22:21:46.845Z,74.80
2023-02-27T22:24:13.795Z,74.66
2023-02-27T22:26:41.662Z,74.77
2023-02-27T22:29:08.901Z,74.83
2023-02-27T22:31:37.928Z,74.98
2023-02-27T22:34:12.317Z,74.97
2023-02-27T22:36:41.199Z,74.94
2023-02-27T22:39:10.162Z,74.92
2023-02-27T22:41:38.539Z,75.11
2023-02-27T22:44:06.334Z,74.91
2023-02-27T22:46:35.933Z,74.98
2023-02-27T22:49:05.817Z,75.02
2023-02-27T22:51:32.928Z,74.86
2023-02-27T22:54:01.751Z,75.05
2023-02-27T22:56:29.770Z,75.12
2023-02-27T22:58:56.768Z,74.90
2023-02-27T23:01:25.684Z,74.93
2023-02-27T23:03:53.974Z,75.04
2023-02-27T23:06:25.192Z,75.05
2023-02-27T23:08:52.244Z,75.06
2023-02-27T23:11:20.306Z,75.13
2023-02-27T23:13:47.488Z,75.04
2023-02-27T23:16:14.643Z,75.06
2023-02-27T23:18:45.546Z,75.23
2023-02-27T23:21:12.759Z,75.21
2023-02-27T23:23:39.812Z,75.25
2023-02-27T23:26:06.924Z,75.22
2023-02-27T23:28:35.548Z,75.14
2023-02-27T23:31:02.542Z,75.33
2023-02-27T23:33:29.991Z,75.22
2023-02-27T23:35:59.504Z,75.30
2023-02-27T23:38:26.938Z,75.02
2023-02-27T23:40:54.242Z,75.46
2023-02-27T23:43:21.810Z,75.40
2023-02-27T23:45:48.550Z,75.65
2023-02-27T23:48:15.260Z,75.71
2023-02-27T23:50:44.505Z,75.72
2023-02-27T23:53:14.977Z,75.67
2023-02-27T23:55:41.991Z,75.80
2023-02-27T23:58:11.160Z,75.79
